バミューダ の空港の天気 - METARとTAF

バミューダ国際空港 ( TXKF / BDA ) - バミューダ諸島 Ferry Reach
飛行場実況気象(Metar)
観測時間01/22 23:55 AST (01/23 03:55 UTC)
風向・風速静穏 0m/s
視程10km以上
天気現象
少しの雲 雲底高度 880m
全天の4割程度の雲 雲底高度 3350m
全天の8割程度の雲 雲底高度 9140m
気温16℃
湿度94%
気圧1025hPa
METARTXKF 230355Z 00000KT 9999 FEW029 SCT110 BKN300 16/15 Q1025
過去の天気等 Google飛行場航空写真 Wunderground天気予報

過去48時間のMETAR

飛行場予報(TAF)
発表時間: 1/22 19:31 AST (1/22 23:31 UTC)
予報対象時間: 22日20時 AST ~ 23日20時 AST
風向・風速西南西 3m/s
視程10km以上
少しの雲 雲底高度 910m
全天の8割程度の雲 雲底高度 4,570m
全天の8割程度の雲 雲底高度 9,140m
23日8時 AST ~ 23日10時 AST に徐々に
風向・風速南 3m/s
TAF TXKF 222331Z 2300/2324 24005KT 9999 FEW030 BKN150 BKN300
BECMG 2312/2314 17005KT